createdAt,value
2023-02-18T00:00:24.633Z,1248.93408
2023-02-18T00:15:27.049Z,834.22083
2023-02-18T00:30:29.315Z,656.82904
2023-02-18T00:45:31.766Z,430.29495
2023-02-18T01:00:34.020Z,225.33551
2023-02-18T01:15:36.290Z,74.31277
2023-02-18T01:30:38.584Z,9.58875
2023-02-18T01:45:40.874Z,0
2023-02-18T02:00:43.226Z,0
2023-02-18T02:15:45.480Z,0
2023-02-18T02:30:47.737Z,0
2023-02-18T02:45:50.087Z,0
2023-02-18T03:00:52.388Z,0
2023-02-18T03:15:54.711Z,0
2023-02-18T03:30:56.919Z,0
2023-02-18T03:46:02.610Z,0
2023-02-18T04:01:04.967Z,0
2023-02-18T04:16:07.670Z,0
2023-02-18T04:31:10.316Z,0
2023-02-18T04:46:12.660Z,0
2023-02-18T05:01:14.953Z,0
2023-02-18T05:16:17.242Z,0
2023-02-18T05:31:19.643Z,0
2023-02-18T05:46:22.282Z,0
2023-02-18T06:01:24.557Z,0
2023-02-18T06:16:26.810Z,0
2023-02-18T06:31:29.204Z,0
2023-02-18T06:46:31.600Z,0
2023-02-18T07:01:33.931Z,0
2023-02-18T07:16:36.237Z,0
2023-02-18T07:31:38.578Z,0
2023-02-18T07:46:41.101Z,0
2023-02-18T08:01:44.210Z,0
2023-02-18T08:16:47.402Z,0
2023-02-18T08:31:49.852Z,0
2023-02-18T08:46:52.290Z,0
2023-02-18T09:01:54.738Z,0
2023-02-18T09:16:56.998Z,0
2023-02-18T09:31:59.373Z,0
2023-02-18T09:47:01.949Z,0
2023-02-18T10:02:04.228Z,0
2023-02-18T10:17:06.450Z,0
2023-02-18T10:32:08.724Z,0
2023-02-18T10:47:11.042Z,0
2023-02-18T11:02:13.267Z,0
2023-02-18T11:17:15.497Z,0
2023-02-18T11:32:17.688Z,0
2023-02-18T11:47:20.052Z,0
2023-02-18T12:02:22.417Z,0
2023-02-18T12:17:24.653Z,0
2023-02-18T12:32:27.129Z,0
2023-02-18T12:47:29.496Z,0
2023-02-18T13:02:31.701Z,0
2023-02-18T13:17:33.883Z,0
2023-02-18T13:32:36.100Z,0
2023-02-18T13:47:38.409Z,0
2023-02-18T14:02:40.716Z,0
2023-02-18T14:17:42.972Z,0
2023-02-18T14:32:45.212Z,1.19859
2023-02-18T14:47:47.676Z,14.38312
2023-02-18T15:02:49.882Z,44.34795
2023-02-18T15:17:52.094Z,147.42696
2023-02-18T15:32:54.559Z,264.8891
2023-02-18T15:47:56.872Z,474.64288
2023-02-18T16:02:59.139Z,767.09961
2023-02-18T16:18:01.416Z,799.46161
2023-02-18T16:33:03.681Z,1138.66345
2023-02-18T16:48:05.904Z,1721.17981
2023-02-18T17:03:08.145Z,1504.23438
2023-02-18T17:18:10.441Z,1814.67004
2023-02-18T17:33:12.775Z,2294.10718
2023-02-18T17:48:15.079Z,3054.01538
2023-02-18T18:03:17.308Z,2744.77832
2023-02-18T18:18:20.080Z,3058.80981
2023-02-18T18:33:22.545Z,2409.17212
2023-02-18T18:48:25.132Z,4151.92676
2023-02-18T19:03:27.557Z,3991.31519
2023-02-18T19:18:29.800Z,5233.05762
2023-02-18T19:33:32.246Z,5284.59717
2023-02-18T19:48:34.543Z,5968.99365
2023-02-18T20:03:36.844Z,4527.08643
2023-02-18T20:18:39.146Z,3914.60522
2023-02-18T20:33:41.395Z,2212.60303
2023-02-18T20:48:43.798Z,3238.59863
2023-02-18T21:03:46.086Z,3057.61108
2023-02-18T21:18:48.360Z,2435.54126
2023-02-18T21:33:50.637Z,3000.07861
2023-02-18T21:48:52.972Z,2580.57104
2023-02-18T22:03:55.317Z,6966.22314
2023-02-18T22:18:57.712Z,2704.02612
2023-02-18T22:34:00.157Z,654.43188
2023-02-18T22:49:02.509Z,1638.47681
2023-02-18T23:04:04.853Z,1208.18188
2023-02-18T23:19:07.149Z,2820.28955
2023-02-18T23:34:09.502Z,1832.64893
2023-02-18T23:49:11.833Z,1223.76355
